This is the latest recevied weather packets stored in our database for station/object DK4DAX-2. If no packets are shown the sender has not sent any weather packets the latest 10 day(s).
| Time | Temp. | Humidity | Pressure | Rain* | Wind** | Luminosity | Snow |
|---|---|---|---|---|---|---|---|
| 1788435903 | 23.33° C | 58% | 1015.7 hPa | 0 mm | - | - | - |
| 1788435003 | 22.78° C | 59% | 1015.7 hPa | 0 mm | - | - | - |
| 1788434103 | 22.78° C | 59% | 1015.8 hPa | 0 mm | - | - | - |
| 1788433203 | 22.22° C | 60% | 1015.7 hPa | 0 mm | - | - | - |
| 1788432303 | 21.67° C | 63% | 1015.6 hPa | 0 mm | - | - | - |
| 1788431404 | 21.67° C | 63% | 1015.8 hPa | 0 mm | - | - | - |
| 1788430503 | 21.67° C | 64% | 1015.8 hPa | 0 mm | - | - | - |
| 1788429603 | 21.11° C | 65% | 1015.7 hPa | 0 mm | - | - | - |
| 1788428703 | 21.67° C | 64% | 1015.8 hPa | 0 mm | - | - | - |
| 1788427803 | 21.67° C | 60% | 1015.7 hPa | 0 mm | - | - | - |
| 1788426903 | 22.22° C | 53% | 1015.8 hPa | 0 mm | - | - | - |
| 1788426004 | 22.22° C | 48% | 1015.7 hPa | 0 mm | - | - | - |
| 1788425103 | 22.78° C | 47% | 1015.6 hPa | 0 mm | - | - | - |
| 1788424203 | 21.67° C | 49% | 1015.6 hPa | 0 mm | - | - | - |
| 1788423303 | 21.11° C | 49% | 1015.6 hPa | 0 mm | - | - | - |
| 1788422404 | 20.56° C | 50% | 1015.8 hPa | 0 mm | - | - | - |
| 1788421503 | 20.56° C | 49% | 1015.9 hPa | 0 mm | - | - | - |
| 1788420603 | 20.56° C | 48% | 1015.8 hPa | 0 mm | - | - | - |
| 1788419704 | 20.56° C | 49% | 1015.9 hPa | 0 mm | - | - | - |
| 1788418803 | 20° C | 50% | 1016.1 hPa | 0 mm | - | - | - |
| 1788417904 | 20° C | 51% | 1015.6 hPa | 0 mm | - | - | - |
| 1788417003 | 20° C | 51% | 1016.3 hPa | 0 mm | - | - | - |
| 1788416103 | 19.44° C | 52% | 1015.7 hPa | 0 mm | - | - | - |
| 1788415204 | 18.89° C | 54% | 1016 hPa | 0 mm | - | - | - |
| 1788414303 | 18.89° C | 58% | 1015.9 hPa | 0 mm | - | - | - |
* Rain latest hour (hover to see other rain measurements)
** Current wind speed in m/s (hover to see current wind gust speed)